Time;durP1;ratioP1;P1;durP2;ratioP2;P2;SDS_P1;SDS_P2;PMS_P1;PMS_P2;Temp;Humidity;BMP_temperature;BMP_pressure;BME280_temperature;BME280_humidity;BME280_pressure;Samples;Min_cycle;Max_cycle;Signal;HPM_P1;HPM_P2
2023/04/01 00:01:39;0.00;0.00;0.62;0.00;0.00;0.62;1.87;1.37;;;24.60;26.00;;;;;;2267898;61;20358;-69
2023/04/01 00:04:24;0.00;0.00;0.62;0.00;0.00;0.62;1.80;1.20;;;24.60;26.00;;;;;;2265406;61;20402;-64
2023/04/01 00:07:09;0.00;0.00;0.62;0.00;0.00;0.62;1.97;1.30;;;24.60;26.00;;;;;;2267468;61;20384;-64
2023/04/01 00:09:57;0.00;0.00;0.62;0.00;0.00;0.62;2.00;1.47;;;24.60;26.00;;;;;;2268423;61;20761;-64
2023/04/01 00:12:43;0.00;0.00;0.62;0.00;0.00;0.62;1.90;1.47;;;24.60;26.00;;;;;;2268725;61;20405;-63
2023/04/01 00:15:28;0.00;0.00;0.62;0.00;0.00;0.62;2.50;1.50;;;24.60;26.00;;;;;;2268186;61;20867;-64
2023/04/01 00:18:13;0.00;0.00;0.62;0.00;0.00;0.62;1.87;1.50;;;24.60;26.00;;;;;;2268133;61;20441;-64
2023/04/01 00:20:58;0.00;0.00;0.62;0.00;0.00;0.62;2.10;1.20;;;24.60;26.00;;;;;;2268067;61;20891;-69
2023/04/01 00:23:43;0.00;0.00;0.62;0.00;0.00;0.62;1.70;1.00;;;24.60;26.00;;;;;;2267669;61;20383;-66
2023/04/01 00:26:28;0.00;0.00;0.62;0.00;0.00;0.62;2.00;1.10;;;24.60;26.00;;;;;;2268456;61;20386;-64
2023/04/01 00:29:14;0.00;0.00;0.62;0.00;0.00;0.62;2.20;1.43;;;24.60;26.00;;;;;;2267609;61;20406;-64
2023/04/01 00:32:00;0.00;0.00;0.62;0.00;0.00;0.62;1.87;1.30;;;24.60;26.00;;;;;;2268462;61;20386;-64
2023/04/01 00:34:45;0.00;0.00;0.62;0.00;0.00;0.62;1.60;1.23;;;24.60;26.00;;;;;;2268678;61;20363;-64
2023/04/01 00:37:30;0.00;0.00;0.62;0.00;0.00;0.62;2.17;1.63;;;24.60;26.00;;;;;;2267862;61;20596;-64
2023/04/01 00:40:27;0.00;0.00;0.62;0.00;0.00;0.62;2.40;1.43;;;24.60;26.00;;;;;;2268554;61;20950;-64
2023/04/01 00:43:14;0.00;0.00;0.62;0.00;0.00;0.62;1.70;1.10;;;24.60;26.00;;;;;;2268394;61;20764;-68
2023/04/01 00:46:01;0.00;0.00;0.62;0.00;0.00;0.62;1.90;1.30;;;24.60;26.00;;;;;;2267721;61;20445;-64
2023/04/01 00:48:50;0.00;0.00;0.62;0.00;0.00;0.62;1.70;1.20;;;24.60;26.00;;;;;;2265597;61;20521;-64
2023/04/01 00:51:37;0.00;0.00;0.62;0.00;0.00;0.62;2.00;1.30;;;24.60;26.00;;;;;;2267712;61;20358;-64
2023/04/01 00:54:26;0.00;0.00;0.62;0.00;0.00;0.62;2.03;1.43;;;24.60;26.00;;;;;;2268606;61;20772;-64
2023/04/01 00:57:16;0.00;0.00;0.62;0.00;0.00;0.62;2.43;1.30;;;24.60;26.00;;;;;;2265427;61;20430;-64
2023/04/01 01:00:03;0.00;0.00;0.62;0.00;0.00;0.62;2.27;1.57;;;24.60;26.00;;;;;;2264460;61;20406;-65
2023/04/01 01:02:51;0.00;0.00;0.62;0.00;0.00;0.62;1.77;1.17;;;24.60;26.00;;;;;;2268317;61;20363;-66
2023/04/01 01:06:03;0.00;0.00;0.62;0.00;0.00;0.62;2.00;1.20;;;24.60;26.00;;;;;;2264955;61;20761;-64
2023/04/01 01:09:09;0.00;0.00;0.62;0.00;0.00;0.62;1.97;1.23;;;24.60;26.00;;;;;;2251162;61;20458;-65
2023/04/01 01:12:04;0.00;0.00;0.62;0.00;0.00;0.62;1.73;1.27;;;24.60;26.00;;;;;;2268749;61;20895;-64
2023/04/01 01:15:06;0.00;0.00;0.62;0.00;0.00;0.62;1.87;1.20;;;24.60;26.00;;;;;;2267814;61;20920;-66
2023/04/01 01:18:03;0.00;0.00;0.62;0.00;0.00;0.62;2.10;1.43;;;24.60;26.00;;;;;;2268575;61;20432;-64
2023/04/01 01:21:20;0.00;0.00;0.62;0.00;0.00;0.62;1.80;1.10;;;24.60;26.00;;;;;;2267910;61;20406;-64
2023/04/01 01:24:30;0.00;0.00;0.62;0.00;0.00;0.62;1.70;1.20;;;24.60;26.00;;;;;;2268099;61;20927;-69
2023/04/01 01:27:16;0.00;0.00;0.62;0.00;0.00;0.62;2.13;1.50;;;24.60;26.00;;;;;;2267870;61;20387;-64
2023/04/01 01:30:34;0.00;0.00;0.62;0.00;0.00;0.62;1.60;1.00;;;24.60;26.10;;;;;;2267588;61;20366;-64
2023/04/01 01:33:43;0.00;0.00;0.62;0.00;0.00;0.62;2.20;1.27;;;24.60;26.10;;;;;;2268299;61;20382;-64
2023/04/01 01:36:34;0.00;0.00;0.62;0.00;0.00;0.62;1.70;1.20;;;24.60;26.00;;;;;;2267554;61;20387;-64
2023/04/01 01:39:26;0.00;0.00;0.62;0.00;0.00;0.62;1.50;0.90;;;24.60;26.10;;;;;;2267738;61;20735;-64
2023/04/01 01:42:16;0.00;0.00;0.62;0.00;0.00;0.62;1.67;1.00;;;24.60;26.00;;;;;;2267720;61;20425;-64
2023/04/01 01:45:03;0.00;0.00;0.62;0.00;0.00;0.62;1.57;0.90;;;24.60;26.00;;;;;;2264638;61;20675;-65
2023/04/01 01:47:50;0.00;0.00;0.62;0.00;0.00;0.62;1.90;1.20;;;24.60;26.10;;;;;;2265445;61;20383;-64
2023/04/01 01:50:36;0.00;0.00;0.62;0.00;0.00;0.62;1.70;0.97;;;24.50;26.00;;;;;;2267427;61;20398;-63
2023/04/01 01:53:23;0.00;0.00;0.62;0.00;0.00;0.62;1.70;0.90;;;24.50;26.00;;;;;;2267788;61;20814;-67
2023/04/01 01:56:10;0.00;0.00;0.62;0.00;0.00;0.62;1.60;0.97;;;24.60;26.00;;;;;;2268184;61;20394;-64
2023/04/01 01:59:02;0.00;0.00;0.62;0.00;0.00;0.62;1.60;0.97;;;24.50;26.00;;;;;;2266855;61;20836;-64
2023/04/01 02:01:53;0.00;0.00;0.62;0.00;0.00;0.62;1.40;0.80;;;24.60;26.00;;;;;;2267886;61;20367;-64
2023/04/01 02:04:41;0.00;0.00;0.62;0.00;0.00;0.62;1.63;1.10;;;24.60;26.10;;;;;;2267617;61;20438;-64
2023/04/01 02:07:32;0.00;0.00;0.62;0.00;0.00;0.62;1.70;1.20;;;24.50;26.00;;;;;;2264546;61;20434;-64
2023/04/01 02:10:22;0.00;0.00;0.62;0.00;0.00;0.62;1.90;1.00;;;24.50;26.00;;;;;;2268603;60;20765;-64
2023/04/01 02:13:15;0.00;0.00;0.62;0.00;0.00;0.62;1.57;1.03;;;24.60;26.10;;;;;;2261962;61;20409;-64
2023/04/01 02:16:08;0.00;0.00;0.62;0.00;0.00;0.62;1.43;0.90;;;24.50;26.00;;;;;;2265120;61;20453;-64
2023/04/01 02:18:55;0.00;0.00;0.62;0.00;0.00;0.62;1.50;0.80;;;24.50;26.00;;;;;;2268045;61;20363;-67
2023/04/01 02:21:42;0.00;0.00;0.62;0.00;0.00;0.62;1.60;1.00;;;24.50;26.00;;;;;;2267829;61;20358;-67
2023/04/01 02:24:30;0.00;0.00;0.62;0.00;0.00;0.62;1.53;1.00;;;24.50;26.00;;;;;;2264885;61;21042;-65
2023/04/01 02:27:16;0.00;0.00;0.62;0.00;0.00;0.62;1.40;0.90;;;24.50;26.00;;;;;;2264807;61;20391;-64
2023/04/01 02:30:01;0.00;0.00;0.62;0.00;0.00;0.62;1.30;0.73;;;24.50;26.00;;;;;;2264760;61;20483;-64
2023/04/01 02:32:47;0.00;0.00;0.62;0.00;0.00;0.62;1.30;0.70;;;24.50;26.00;;;;;;2266034;61;20413;-64
2023/04/01 02:35:35;0.00;0.00;0.62;0.00;0.00;0.62;1.80;1.00;;;24.50;26.00;;;;;;2267995;61;20378;-64
2023/04/01 02:38:19;0.00;0.00;0.62;0.00;0.00;0.62;1.93;0.90;;;24.50;26.00;;;;;;2265890;61;20364;-64
2023/04/01 02:41:06;0.00;0.00;0.62;0.00;0.00;0.62;1.40;0.83;;;24.50;26.00;;;;;;2265330;61;20363;-64
2023/04/01 02:43:52;0.00;0.00;0.62;0.00;0.00;0.62;1.50;0.97;;;24.50;26.00;;;;;;2268292;61;20383;-64
2023/04/01 02:46:36;0.00;0.00;0.62;0.00;0.00;0.62;1.40;0.80;;;24.50;26.00;;;;;;2266032;61;20386;-63
2023/04/01 02:49:22;0.00;0.00;0.62;0.00;0.00;0.62;1.70;1.10;;;24.50;26.00;;;;;;2262292;61;20371;-64
2023/04/01 02:52:07;0.00;0.00;0.62;0.00;0.00;0.62;1.50;1.13;;;24.50;26.00;;;;;;2268655;61;20363;-65
2023/04/01 02:54:53;0.00;0.00;0.62;0.00;0.00;0.62;1.53;0.97;;;24.50;26.00;;;;;;2263115;61;20447;-65
2023/04/01 02:57:38;0.00;0.00;0.62;0.00;0.00;0.62;1.57;0.93;;;24.50;26.00;;;;;;2265124;61;20413;-69
2023/04/01 03:00:24;0.00;0.00;0.62;0.00;0.00;0.62;1.50;0.90;;;24.50;26.00;;;;;;2265813;61;20366;-66
2023/04/01 03:03:13;0.00;0.00;0.62;0.00;0.00;0.62;1.50;1.00;;;24.50;26.00;;;;;;2265676;61;20778;-64
2023/04/01 03:05:59;0.00;0.00;0.62;0.00;0.00;0.62;2.13;1.10;;;24.50;26.00;;;;;;2268518;61;20770;-63
2023/04/01 03:08:44;0.00;0.00;0.62;0.00;0.00;0.62;1.40;0.80;;;24.50;26.00;;;;;;2265717;61;20567;-64
2023/04/01 03:11:29;0.00;0.00;0.62;0.00;0.00;0.62;1.67;0.80;;;24.50;26.00;;;;;;2267697;61;20938;-64
2023/04/01 03:14:14;0.00;0.00;0.62;0.00;0.00;0.62;1.60;1.00;;;24.50;26.50;;;;;;2265229;61;20556;-64
2023/04/01 03:17:00;0.00;0.00;0.62;0.00;0.00;0.62;1.50;0.90;;;24.50;26.10;;;;;;2265778;61;20927;-63
2023/04/01 03:19:46;0.00;0.00;0.62;0.00;0.00;0.62;1.33;0.73;;;24.40;25.90;;;;;;2264787;61;20362;-64
2023/04/01 03:22:31;0.00;0.00;0.62;0.00;0.00;0.62;1.60;1.00;;;24.50;26.00;;;;;;2265969;61;20359;-63
2023/04/01 03:25:16;0.00;0.00;0.62;0.00;0.00;0.62;1.67;0.90;;;24.40;25.90;;;;;;2268755;61;20431;-63
2023/04/01 03:28:00;0.00;0.00;0.62;0.00;0.00;0.62;1.50;0.80;;;24.40;25.90;;;;;;2262490;61;20430;-64
2023/04/01 03:30:45;0.00;0.00;0.62;0.00;0.00;0.62;1.50;0.70;;;24.50;26.00;;;;;;2265387;61;20386;-63
2023/04/01 03:33:32;0.00;0.00;0.62;0.00;0.00;0.62;1.40;0.80;;;24.50;26.00;;;;;;2262582;61;20394;-63
2023/04/01 03:36:17;0.00;0.00;0.62;0.00;0.00;0.62;1.97;1.00;;;24.40;25.90;;;;;;2268282;61;20429;-64
2023/04/01 03:39:03;0.00;0.00;0.62;0.00;0.00;0.62;1.73;0.90;;;24.50;26.00;;;;;;2265149;61;20883;-63
2023/04/01 03:41:55;0.00;0.00;0.62;0.00;0.00;0.62;1.23;0.60;;;24.40;26.00;;;;;;2265130;61;20363;-64
2023/04/01 03:44:40;0.00;0.00;0.62;0.00;0.00;0.62;1.80;1.03;;;24.50;26.00;;;;;;2265879;61;20379;-66
2023/04/01 03:47:26;0.00;0.00;0.62;0.00;0.00;0.62;1.40;0.80;;;24.40;26.00;;;;;;2265366;61;20467;-64
2023/04/01 03:50:12;0.00;0.00;0.62;0.00;0.00;0.62;1.47;0.90;;;24.40;26.00;;;;;;2262005;61;20922;-63
2023/04/01 03:52:57;0.00;0.00;0.62;0.00;0.00;0.62;1.40;0.80;;;24.40;26.00;;;;;;2265599;61;20363;-63
2023/04/01 03:55:41;0.00;0.00;0.62;0.00;0.00;0.62;1.83;0.87;;;24.40;26.00;;;;;;2262316;61;20407;-63
2023/04/01 03:58:26;0.00;0.00;0.62;0.00;0.00;0.62;1.50;0.90;;;24.40;26.00;;;;;;2265317;61;20502;-64
2023/04/01 04:01:17;0.00;0.00;0.62;0.00;0.00;0.62;1.57;0.70;;;24.40;26.00;;;;;;2265345;61;20363;-64
2023/04/01 04:04:03;0.00;0.00;0.62;0.00;0.00;0.62;1.43;0.83;;;24.40;26.00;;;;;;2264562;61;20939;-63
2023/04/01 04:06:50;0.00;0.00;0.62;0.00;0.00;0.62;1.60;0.70;;;24.40;26.00;;;;;;2265695;61;20413;-65
2023/04/01 04:09:35;0.00;0.00;0.62;0.00;0.00;0.62;1.40;0.90;;;24.40;26.00;;;;;;2265340;61;20410;-65
2023/04/01 04:12:20;0.00;0.00;0.62;0.00;0.00;0.62;1.33;0.70;;;24.40;26.00;;;;;;2264949;61;20432;-63
2023/04/01 04:15:06;0.00;0.00;0.62;0.00;0.00;0.62;1.57;0.90;;;24.40;26.00;;;;;;2265323;61;20938;-64
2023/04/01 04:17:50;0.00;0.00;0.62;0.00;0.00;0.62;1.30;0.73;;;24.40;26.00;;;;;;2265266;61;20441;-63
2023/04/01 04:20:36;0.00;0.00;0.62;0.00;0.00;0.62;1.30;0.70;;;24.40;26.00;;;;;;2264776;61;20367;-67
2023/04/01 04:23:22;0.00;0.00;0.62;0.00;0.00;0.62;1.30;0.73;;;24.40;26.00;;;;;;2265477;61;20398;-66
2023/04/01 04:26:10;0.00;0.00;0.62;0.00;0.00;0.62;1.30;0.70;;;24.40;26.00;;;;;;2268430;61;20460;-64
2023/04/01 04:28:55;0.00;0.00;0.62;0.00;0.00;0.62;1.40;0.70;;;24.40;26.00;;;;;;2265246;61;21062;-63
2023/04/01 04:31:40;0.00;0.00;0.62;0.00;0.00;0.62;1.50;0.80;;;24.40;26.00;;;;;;2265582;61;20777;-64
2023/04/01 04:34:25;0.00;0.00;0.62;0.00;0.00;0.62;1.40;0.80;;;24.40;26.00;;;;;;2267688;61;20363;-64
2023/04/01 04:37:09;0.00;0.00;0.62;0.00;0.00;0.62;1.37;0.73;;;24.40;26.00;;;;;;2265114;61;20801;-63
2023/04/01 04:39:56;0.00;0.00;0.62;0.00;0.00;0.62;1.40;0.87;;;24.40;26.00;;;;;;2265017;61;20502;-63
2023/04/01 04:42:41;0.00;0.00;0.62;0.00;0.00;0.62;1.50;0.80;;;24.40;26.00;;;;;;2264999;61;20372;-63
2023/04/01 04:45:31;0.00;0.00;0.62;0.00;0.00;0.62;1.70;0.80;;;24.40;26.00;;;;;;2265314;61;20399;-62
2023/04/01 04:48:18;0.00;0.00;0.62;0.00;0.00;0.62;1.40;0.80;;;24.40;26.00;;;;;;2264781;61;20367;-64
2023/04/01 04:51:04;0.00;0.00;0.62;0.00;0.00;0.62;1.40;0.70;;;24.40;26.00;;;;;;2262088;61;20394;-63
2023/04/01 04:53:49;0.00;0.00;0.62;0.00;0.00;0.62;1.30;0.70;;;24.40;26.00;;;;;;2265371;61;20383;-64
2023/04/01 04:56:35;0.00;0.00;0.62;0.00;0.00;0.62;1.67;0.80;;;24.40;26.00;;;;;;2264533;61;20941;-64
2023/04/01 04:59:25;0.00;0.00;0.62;0.00;0.00;0.62;1.30;0.77;;;24.40;26.00;;;;;;2265277;61;20367;-63
2023/04/01 05:02:25;0.00;0.00;0.62;0.00;0.00;0.62;1.50;0.80;;;24.40;26.00;;;;;;2264934;61;20417;-64
2023/04/01 05:05:10;0.00;0.00;0.62;0.00;0.00;0.62;1.30;0.70;;;24.40;26.00;;;;;;2264848;61;20399;-64
2023/04/01 05:07:55;0.00;0.00;0.62;0.00;0.00;0.62;1.50;0.70;;;24.40;26.00;;;;;;2265517;61;20463;-63
2023/04/01 05:10:40;0.00;0.00;0.62;0.00;0.00;0.62;1.50;0.90;;;24.40;26.00;;;;;;2267218;61;20382;-63
2023/04/01 05:13:26;0.00;0.00;0.62;0.00;0.00;0.62;1.30;0.70;;;24.40;26.00;;;;;;2262903;61;20370;-63
2023/04/01 05:16:14;0.00;0.00;0.62;0.00;0.00;0.62;1.23;0.60;;;24.40;26.00;;;;;;2265380;61;20491;-63
2023/04/01 05:18:59;0.00;0.00;0.62;0.00;0.00;0.62;1.30;0.70;;;24.40;26.00;;;;;;2261695;61;20402;-63
2023/04/01 05:21:44;0.00;0.00;0.62;0.00;0.00;0.62;1.40;0.80;;;24.40;26.00;;;;;;2265488;61;20375;-64
2023/04/01 05:24:29;0.00;0.00;0.62;0.00;0.00;0.62;1.40;0.70;;;24.40;26.00;;;;;;2264933;61;20478;-64
2023/04/01 05:27:14;0.00;0.00;0.62;0.00;0.00;0.62;1.30;0.70;;;24.40;26.00;;;;;;2264791;61;20517;-63
2023/04/01 05:30:02;0.00;0.00;0.62;0.00;0.00;0.62;1.40;0.70;;;24.40;26.00;;;;;;2265216;61;20876;-64
2023/04/01 05:33:07;0.00;0.00;0.62;0.00;0.00;0.62;1.60;0.90;;;24.30;26.00;;;;;;2263574;61;20371;-64
2023/04/01 05:35:52;0.00;0.00;0.62;0.00;0.00;0.62;1.40;0.80;;;24.30;26.00;;;;;;2265396;61;20419;-63
2023/04/01 05:38:37;0.00;0.00;0.62;0.00;0.00;0.62;1.43;0.73;;;24.40;26.00;;;;;;2265285;61;20359;-63
2023/04/01 05:41:24;0.00;0.00;0.62;0.00;0.00;0.62;1.30;0.70;;;24.40;26.00;;;;;;2264797;61;20460;-68
2023/04/01 05:44:12;0.00;0.00;0.62;0.00;0.00;0.62;1.50;0.80;;;24.30;26.00;;;;;;2268432;61;20813;-63
2023/04/01 05:47:01;0.00;0.00;0.62;0.00;0.00;0.62;1.30;0.70;;;24.30;26.00;;;;;;2268015;61;20434;-63
2023/04/01 05:49:46;0.00;0.00;0.62;0.00;0.00;0.62;1.63;0.90;;;24.30;26.00;;;;;;2264547;61;20792;-63
2023/04/01 05:52:30;0.00;0.00;0.62;0.00;0.00;0.62;1.40;0.80;;;24.40;26.00;;;;;;2265372;61;20796;-66
2023/04/01 05:55:16;0.00;0.00;0.62;0.00;0.00;0.62;1.53;0.90;;;24.30;26.00;;;;;;2264458;61;20367;-64
2023/04/01 05:58:01;0.00;0.00;0.62;0.00;0.00;0.62;1.47;0.80;;;24.40;26.00;;;;;;2265254;61;20422;-66
2023/04/01 06:00:47;0.00;0.00;0.62;0.00;0.00;0.62;1.43;0.93;;;24.40;26.60;;;;;;2264845;61;20856;-67
2023/04/01 06:03:36;0.00;0.00;0.62;0.00;0.00;0.62;1.40;0.80;;;24.40;26.00;;;;;;2264769;61;20696;-63
2023/04/01 06:06:25;0.00;0.00;0.62;0.00;0.00;0.62;2.07;1.40;;;24.40;26.00;;;;;;2265825;61;20437;-64
2023/04/01 06:09:16;0.00;0.00;0.62;0.00;0.00;0.62;2.10;1.23;;;24.40;26.00;;;;;;2266826;60;20365;-63
2023/04/01 06:12:38;0.00;0.00;0.62;0.00;0.00;0.62;1.73;1.20;;;24.30;26.00;;;;;;2274180;60;20357;-63
2023/04/01 06:15:34;0.00;0.00;0.62;0.00;0.00;0.62;1.70;1.50;;;24.30;26.00;;;;;;2274097;60;20857;-63
2023/04/01 06:19:06;0.00;0.00;0.62;0.00;0.00;0.62;1.87;1.23;;;24.30;26.00;;;;;;2273651;60;20361;-63
2023/04/01 06:22:46;0.00;0.00;0.62;0.00;0.00;0.62;2.43;1.73;;;24.30;26.00;;;;;;2268213;60;20932;-64
2023/04/01 06:25:56;0.00;0.00;0.62;0.00;0.00;0.62;2.50;1.70;;;24.30;26.00;;;;;;2268789;60;20815;-64
2023/04/01 06:29:41;0.00;0.00;0.62;0.00;0.00;0.62;2.70;2.00;;;24.30;26.00;;;;;;2274221;60;20360;-64
2023/04/01 06:33:02;0.00;0.00;0.62;0.00;0.00;0.62;2.87;2.13;;;24.30;26.00;;;;;;2262864;61;20522;-63
2023/04/01 06:36:40;0.00;0.00;0.62;0.00;0.00;0.62;3.03;2.30;;;24.30;26.00;;;;;;2249072;61;20375;-63
2023/04/01 06:39:53;0.00;0.00;0.62;0.00;0.00;0.62;2.80;2.30;;;24.30;26.00;;;;;;2240318;61;20962;-63
2023/04/01 06:42:55;0.00;0.00;0.62;0.00;0.00;0.62;3.13;2.67;;;24.30;26.00;;;;;;2261296;61;20364;-64
2023/04/01 06:46:09;0.00;0.00;0.62;0.00;0.00;0.62;3.70;2.87;;;24.30;26.00;;;;;;2260483;61;20450;-63
2023/04/01 06:49:44;0.00;0.00;0.62;0.00;0.00;0.62;3.37;2.70;;;24.30;26.00;;;;;;2255144;61;20450;-64
2023/04/01 06:53:14;0.00;0.00;0.62;0.00;0.00;0.62;3.60;2.70;;;24.30;26.00;;;;;;2246123;61;20364;-63
2023/04/01 06:56:21;0.00;0.00;0.62;0.00;0.00;0.62;3.90;3.07;;;24.30;26.00;;;;;;2263237;61;20468;-65
2023/04/01 06:59:37;0.00;0.00;0.62;0.00;0.00;0.62;3.97;3.47;;;24.30;26.10;;;;;;2262730;61;20372;-64
2023/04/01 07:02:32;0.00;0.00;0.62;0.00;0.00;0.62;4.10;3.27;;;24.30;26.10;;;;;;2263087;61;20435;-64
2023/04/01 07:05:17;0.00;0.00;0.62;0.00;0.00;0.62;4.00;3.13;;;24.30;26.10;;;;;;2263657;61;20465;-64
2023/04/01 07:08:05;0.00;0.00;0.62;0.00;0.00;0.62;3.60;3.10;;;24.30;26.10;;;;;;2263445;61;20380;-63
2023/04/01 07:10:57;0.00;0.00;0.62;0.00;0.00;0.62;3.93;3.10;;;24.30;26.10;;;;;;2260392;61;20407;-64
2023/04/01 07:14:06;0.00;0.00;0.62;0.00;0.00;0.62;4.53;3.83;;;24.30;26.10;;;;;;2263722;61;20453;-64
2023/04/01 07:16:56;0.00;0.00;0.62;0.00;0.00;0.62;3.80;3.33;;;24.30;26.00;;;;;;2260095;61;20947;-63
2023/04/01 07:19:46;0.00;0.00;0.62;0.00;0.00;0.62;4.40;3.50;;;24.30;26.10;;;;;;2276322;60;20353;-68
2023/04/01 07:22:35;0.00;0.00;0.62;0.00;0.00;0.62;4.77;3.97;;;24.30;26.10;;;;;;2273618;60;20365;-64
2023/04/01 07:25:37;0.00;0.00;0.62;0.00;0.00;0.62;4.03;3.63;;;24.30;26.10;;;;;;2269052;61;20394;-64
2023/04/01 07:29:05;0.00;0.00;0.62;0.00;0.00;0.62;4.17;3.63;;;24.30;26.10;;;;;;2259674;61;20389;-64
2023/04/01 07:32:25;0.00;0.00;0.62;0.00;0.00;0.62;4.20;3.50;;;24.30;26.10;;;;;;2253375;61;20393;-63
2023/04/01 07:35:21;0.00;0.00;0.62;0.00;0.00;0.62;4.87;4.00;;;24.30;26.10;;;;;;2269711;61;20361;-64
2023/04/01 07:38:21;0.00;0.00;0.62;0.00;0.00;0.62;4.90;4.27;;;24.30;26.10;;;;;;2269278;61;20412;-64
2023/04/01 07:41:17;0.00;0.00;0.62;0.00;0.00;0.62;5.80;4.00;;;24.30;26.10;;;;;;2269494;61;20428;-64
2023/04/01 07:44:15;0.00;0.00;0.62;0.00;0.00;0.62;5.50;4.60;;;24.30;26.10;;;;;;2269816;61;20358;-66
2023/04/01 07:47:19;0.00;0.00;0.62;0.00;0.00;0.62;6.03;4.93;;;24.30;26.20;;;;;;2269051;61;20898;-64
2023/04/01 07:50:18;0.00;0.00;0.62;0.00;0.00;0.62;5.40;4.57;;;24.30;26.20;;;;;;2269246;61;20424;-64
2023/04/01 07:53:15;0.00;0.00;0.62;0.00;0.00;0.62;5.57;4.60;;;24.30;26.20;;;;;;2268984;61;20408;-64
2023/04/01 07:56:08;0.00;0.00;0.62;0.00;0.00;0.62;5.10;4.57;;;24.30;26.20;;;;;;2269400;61;20378;-62
2023/04/01 07:59:08;0.00;0.00;0.62;0.00;0.00;0.62;5.13;4.20;;;24.30;26.20;;;;;;2269207;61;20408;-66
2023/04/01 08:02:34;0.00;0.00;0.62;0.00;0.00;0.62;4.80;4.00;;;24.30;26.20;;;;;;2268864;61;20366;-65
2023/04/01 08:05:27;0.00;0.00;0.62;0.00;0.00;0.62;4.90;4.30;;;24.30;26.20;;;;;;2269487;61;20385;-64
2023/04/01 08:08:19;0.00;0.00;0.62;0.00;0.00;0.62;4.87;4.27;;;24.30;26.20;;;;;;2269167;61;20416;-64
2023/04/01 08:11:48;0.00;0.00;0.62;0.00;0.00;0.62;5.30;4.80;;;24.30;26.20;;;;;;2269353;61;20361;-64
2023/04/01 08:15:10;0.00;0.00;0.62;0.00;0.00;0.62;5.43;4.37;;;24.30;26.20;;;;;;2272334;61;20350;-64
2023/04/01 08:18:34;0.00;0.00;0.62;0.00;0.00;0.62;5.57;4.60;;;24.30;26.20;;;;;;2272447;61;20361;-64
2023/04/01 08:21:24;0.00;0.00;0.62;0.00;0.00;0.62;5.20;4.70;;;24.30;26.20;;;;;;2645436;45;20394;-64
2023/04/01 08:24:19;0.00;0.00;0.62;0.00;0.00;0.62;5.07;4.37;;;24.30;26.20;;;;;;2263736;61;20463;-64
2023/04/01 08:27:15;0.00;0.00;0.62;0.00;0.00;0.62;5.60;4.87;;;24.30;26.20;;;;;;2265523;61;20445;-66
2023/04/01 08:30:16;0.00;0.00;0.62;0.00;0.00;0.62;5.93;5.33;;;24.30;26.20;;;;;;2264870;61;20399;-64
2023/04/01 08:33:10;0.00;0.00;0.62;0.00;0.00;0.62;6.07;4.90;;;24.40;26.30;;;;;;2262402;61;20425;-64
2023/04/01 08:36:03;0.00;0.00;0.62;0.00;0.00;0.62;5.20;4.63;;;24.40;26.30;;;;;;2265433;61;20360;-64
2023/04/01 08:38:54;0.00;0.00;0.62;0.00;0.00;0.62;6.10;5.50;;;24.40;26.30;;;;;;2268175;61;20359;-64
2023/04/01 08:42:04;0.00;0.00;0.62;0.00;0.00;0.62;5.20;4.70;;;24.40;26.30;;;;;;2268723;61;20406;-64
2023/04/01 08:45:15;0.00;0.00;0.62;0.00;0.00;0.62;5.40;4.77;;;24.30;26.20;;;;;;2267917;61;20379;-64
2023/04/01 08:48:45;0.00;0.00;0.62;0.00;0.00;0.62;5.30;4.67;;;24.40;26.30;;;;;;2300651;41;20452;-64
2023/04/01 08:52:19;0.00;0.00;0.62;0.00;0.00;0.62;5.70;5.10;;;24.40;26.80;;;;;;2265111;61;20370;-65
2023/04/01 08:55:39;0.00;0.00;0.62;0.00;0.00;0.62;5.63;4.93;;;24.40;26.30;;;;;;2268499;61;20401;-64
2023/04/01 08:58:59;0.00;0.00;0.62;0.00;0.00;0.62;6.73;5.30;;;24.40;26.30;;;;;;2261712;61;20411;-63
2023/04/01 09:02:26;0.00;0.00;0.62;0.00;0.00;0.62;5.50;4.50;;;24.40;26.80;;;;;;2263648;61;20364;-64
2023/04/01 09:05:53;0.00;0.00;0.62;0.00;0.00;0.62;6.13;4.97;;;24.40;26.30;;;;;;2261776;61;20487;-66
2023/04/01 09:09:01;0.00;0.00;0.62;0.00;0.00;0.62;5.00;4.10;;;24.40;26.30;;;;;;2261046;61;20364;-64
2023/04/01 09:12:19;0.00;0.00;0.62;0.00;0.00;0.62;4.70;4.20;;;24.40;26.30;;;;;;2264944;61;20447;-64
2023/04/01 09:16:02;0.00;0.00;0.62;0.00;0.00;0.62;5.20;4.70;;;24.40;26.30;;;;;;2263648;61;20793;-64
2023/04/01 09:19:16;0.00;0.00;0.62;0.00;0.00;0.62;4.57;3.90;;;24.40;26.30;;;;;;2254599;61;20415;-63
2023/04/01 09:22:32;0.00;0.00;0.62;0.00;0.00;0.62;4.33;3.90;;;24.40;26.30;;;;;;2260837;61;20446;-64
2023/04/01 09:25:43;0.00;0.00;0.62;0.00;0.00;0.62;5.03;4.53;;;24.40;26.30;;;;;;2261663;61;20802;-64
2023/04/01 09:28:39;0.00;0.00;0.62;0.00;0.00;0.62;5.33;4.83;;;24.40;26.30;;;;;;2261304;61;20418;-64
2023/04/01 09:31:49;0.00;0.00;0.62;0.00;0.00;0.62;6.00;4.90;;;24.40;26.40;;;;;;2260751;61;20904;-63
2023/04/01 09:35:04;0.00;0.00;0.62;0.00;0.00;0.62;5.90;5.30;;;24.40;26.40;;;;;;2262329;61;20811;-64
2023/04/01 09:38:05;0.00;0.00;0.62;0.00;0.00;0.62;5.20;4.40;;;24.40;26.40;;;;;;2260715;61;20403;-64
2023/04/01 09:40:57;0.00;0.00;0.62;0.00;0.00;0.62;5.03;4.50;;;24.40;26.30;;;;;;2265386;61;20391;-64
2023/04/01 09:44:18;0.00;0.00;0.62;0.00;0.00;0.62;5.97;4.60;;;24.50;26.40;;;;;;2264588;61;20360;-62
2023/04/01 09:47:43;0.00;0.00;0.62;0.00;0.00;0.62;5.20;4.30;;;24.50;26.40;;;;;;2259993;61;20387;-64
2023/04/01 09:50:41;0.00;0.00;0.62;0.00;0.00;0.62;6.30;5.20;;;24.50;26.40;;;;;;2261660;61;20380;-66
2023/04/01 09:53:56;0.00;0.00;0.62;0.00;0.00;0.62;5.13;4.57;;;24.50;26.40;;;;;;2261756;61;20368;-64
2023/04/01 09:57:20;0.00;0.00;0.62;0.00;0.00;0.62;4.60;4.00;;;24.50;26.40;;;;;;2262461;61;20978;-64
2023/04/01 10:00:39;0.00;0.00;0.62;0.00;0.00;0.62;5.07;4.57;;;24.50;26.40;;;;;;2261227;61;20847;-64
2023/04/01 10:04:03;0.00;0.00;0.62;0.00;0.00;0.62;5.40;4.23;;;24.50;26.90;;;;;;2265287;61;20359;-63
2023/04/01 10:10:26;0.00;0.00;0.62;0.00;0.00;0.62;4.80;4.30;;;24.50;26.40;;;;;;2262199;61;20929;-64
2023/04/01 10:14:05;0.00;0.00;0.62;0.00;0.00;0.62;5.50;4.80;;;24.50;26.40;;;;;;2257791;61;20365;-64
2023/04/01 10:17:26;0.00;0.00;0.62;0.00;0.00;0.62;5.73;4.60;;;24.60;26.40;;;;;;2257854;61;20846;-66
2023/04/01 10:20:53;0.00;0.00;0.62;0.00;0.00;0.62;5.10;4.23;;;24.50;26.40;;;;;;2257131;61;20364;-63
2023/04/01 10:24:10;0.00;0.00;0.62;0.00;0.00;0.62;5.33;4.37;;;24.60;26.50;;;;;;2263250;61;20408;-63
2023/04/01 10:27:21;0.00;0.00;0.62;0.00;0.00;0.62;5.60;4.30;;;24.60;26.50;;;;;;2257840;61;20788;-65
2023/04/01 10:30:50;0.00;0.00;0.62;0.00;0.00;0.62;4.70;3.50;;;24.50;26.50;;;;;;2260243;61;20388;-66
2023/04/01 10:34:42;0.00;0.00;0.62;0.00;0.00;0.62;4.23;3.83;;;24.60;26.60;;;;;;2257649;61;20939;-64
2023/04/01 10:37:59;0.00;0.00;0.62;0.00;0.00;0.62;5.33;4.10;;;24.60;26.60;;;;;;2257858;61;20495;-65
2023/04/01 10:41:34;0.00;0.00;0.62;0.00;0.00;0.62;4.90;3.20;;;24.60;26.60;;;;;;2261690;61;20824;-65
2023/04/01 10:45:57;0.00;0.00;0.62;0.00;0.00;0.62;3.40;3.10;;;24.60;26.60;;;;;;2259273;61;20455;-64
2023/04/01 10:49:16;0.00;0.00;0.62;0.00;0.00;0.62;4.23;3.30;;;24.60;26.70;;;;;;2240731;61;20944;-65
2023/04/01 10:52:49;0.00;0.00;0.62;0.00;0.00;0.62;3.30;2.90;;;24.60;26.70;;;;;;2240952;61;20813;-66
2023/04/01 10:56:20;0.00;0.00;0.62;0.00;0.00;0.62;3.77;3.43;;;24.60;26.70;;;;;;2232042;62;20414;-66
2023/04/01 10:59:35;0.00;0.00;0.62;0.00;0.00;0.62;5.27;3.73;;;24.70;26.80;;;;;;2235362;61;20376;-65
2023/04/01 11:03:59;0.00;0.00;0.62;0.00;0.00;0.62;4.03;2.93;;;24.70;26.80;;;;;;2237022;62;20884;-65
2023/04/01 11:07:28;0.00;0.00;0.62;0.00;0.00;0.62;4.07;3.00;;;24.70;26.80;;;;;;2231778;62;20486;-64
2023/04/01 11:10:54;0.00;0.00;0.62;0.00;0.00;0.62;4.80;3.30;;;24.70;26.80;;;;;;2231323;62;20376;-64
2023/04/01 11:14:08;0.00;0.00;0.62;0.00;0.00;0.62;3.30;3.00;;;24.70;26.80;;;;;;2227562;62;20464;-65
2023/04/01 11:17:22;0.00;0.00;0.62;0.00;0.00;0.62;4.13;3.13;;;24.70;26.80;;;;;;2228204;62;20818;-63
2023/04/01 11:20:49;0.00;0.00;0.62;0.00;0.00;0.62;4.37;2.83;;;24.70;26.80;;;;;;2229614;61;20460;-65
2023/04/01 11:24:08;0.00;0.00;0.62;0.00;0.00;0.62;4.77;3.77;;;24.70;26.80;;;;;;2243845;61;20416;-62
2023/04/01 11:27:19;0.00;0.00;0.62;0.00;0.00;0.62;4.50;3.23;;;24.80;26.90;;;;;;2240220;61;20392;-63
2023/04/01 11:30:28;0.00;0.00;0.62;0.00;0.00;0.62;3.67;3.20;;;24.80;26.90;;;;;;2243058;61;20879;-65
2023/04/01 11:33:23;0.00;0.00;0.62;0.00;0.00;0.62;3.67;3.00;;;24.80;26.90;;;;;;2250140;61;20365;-65
2023/04/01 11:36:21;0.00;0.00;0.62;0.00;0.00;0.62;4.13;2.83;;;24.80;26.90;;;;;;2257033;61;20408;-65
2023/04/01 11:39:30;0.00;0.00;0.62;0.00;0.00;0.62;3.17;2.80;;;24.80;27.50;;;;;;2260908;61;20407;-67
2023/04/01 11:42:31;0.00;0.00;0.62;0.00;0.00;0.62;4.87;3.37;;;24.90;27.00;;;;;;2260865;61;20366;-67
2023/04/01 11:45:39;0.00;0.00;0.62;0.00;0.00;0.62;4.23;3.40;;;24.80;26.90;;;;;;2260892;61;20385;-65
2023/04/01 11:48:52;0.00;0.00;0.62;0.00;0.00;0.62;3.90;2.90;;;24.90;27.00;;;;;;2257496;61;20361;-63
2023/04/01 11:52:14;0.00;0.00;0.62;0.00;0.00;0.62;4.00;3.10;;;24.90;27.00;;;;;;2257833;61;20380;-64